sensor_id;sensor_type;location;lat;lon;timestamp;P1;durP1;ratioP1;P2;durP2;ratioP2
30420;SDS011;17218;54.070;10.012;2023-02-28T00:00:47;5.43;;;2.87;;
30420;SDS011;17218;54.070;10.012;2023-02-28T00:03:14;5.00;;;3.00;;
30420;SDS011;17218;54.070;10.012;2023-02-28T00:05:41;4.20;;;2.40;;
30420;SDS011;17218;54.070;10.012;2023-02-28T00:08:09;4.83;;;2.83;;
30420;SDS011;17218;54.070;10.012;2023-02-28T00:10:35;5.93;;;2.37;;
30420;SDS011;17218;54.070;10.012;2023-02-28T00:13:03;5.43;;;2.80;;
30420;SDS011;17218;54.070;10.012;2023-02-28T00:15:31;5.43;;;2.57;;
30420;SDS011;17218;54.070;10.012;2023-02-28T00:17:58;4.77;;;2.03;;
30420;SDS011;17218;54.070;10.012;2023-02-28T00:20:24;6.83;;;2.60;;
30420;SDS011;17218;54.070;10.012;2023-02-28T00:22:52;4.23;;;2.17;;
30420;SDS011;17218;54.070;10.012;2023-02-28T00:25:21;5.17;;;2.30;;
30420;SDS011;17218;54.070;10.012;2023-02-28T00:27:50;4.00;;;2.60;;
30420;SDS011;17218;54.070;10.012;2023-02-28T00:30:17;5.00;;;2.53;;
30420;SDS011;17218;54.070;10.012;2023-02-28T00:32:44;6.30;;;4.00;;
30420;SDS011;17218;54.070;10.012;2023-02-28T00:35:11;5.23;;;3.03;;
30420;SDS011;17218;54.070;10.012;2023-02-28T00:37:38;3.07;;;2.57;;
30420;SDS011;17218;54.070;10.012;2023-02-28T00:40:05;6.00;;;3.10;;
30420;SDS011;17218;54.070;10.012;2023-02-28T00:42:34;6.93;;;3.03;;
30420;SDS011;17218;54.070;10.012;2023-02-28T00:45:01;4.03;;;2.83;;
30420;SDS011;17218;54.070;10.012;2023-02-28T00:47:29;5.70;;;2.77;;
30420;SDS011;17218;54.070;10.012;2023-02-28T00:49:56;4.20;;;2.97;;
30420;SDS011;17218;54.070;10.012;2023-02-28T00:52:22;6.27;;;2.80;;
30420;SDS011;17218;54.070;10.012;2023-02-28T00:54:49;5.77;;;3.50;;
30420;SDS011;17218;54.070;10.012;2023-02-28T00:57:16;3.97;;;2.93;;
30420;SDS011;17218;54.070;10.012;2023-02-28T00:59:43;8.63;;;3.20;;
30420;SDS011;17218;54.070;10.012;2023-02-28T01:02:10;7.93;;;3.87;;
30420;SDS011;17218;54.070;10.012;2023-02-28T01:04:36;6.97;;;4.20;;
30420;SDS011;17218;54.070;10.012;2023-02-28T01:07:03;7.33;;;3.53;;
30420;SDS011;17218;54.070;10.012;2023-02-28T01:09:29;6.60;;;3.20;;
30420;SDS011;17218;54.070;10.012;2023-02-28T01:11:56;8.57;;;3.67;;
30420;SDS011;17218;54.070;10.012;2023-02-28T01:14:22;7.17;;;3.30;;
30420;SDS011;17218;54.070;10.012;2023-02-28T01:16:50;6.67;;;3.17;;
30420;SDS011;17218;54.070;10.012;2023-02-28T01:19:17;6.97;;;3.93;;
30420;SDS011;17218;54.070;10.012;2023-02-28T01:21:44;6.70;;;3.70;;
30420;SDS011;17218;54.070;10.012;2023-02-28T01:24:10;6.27;;;3.10;;
30420;SDS011;17218;54.070;10.012;2023-02-28T01:26:37;10.70;;;3.80;;
30420;SDS011;17218;54.070;10.012;2023-02-28T01:29:03;6.40;;;3.10;;
30420;SDS011;17218;54.070;10.012;2023-02-28T01:31:29;7.80;;;3.33;;
30420;SDS011;17218;54.070;10.012;2023-02-28T01:33:57;5.50;;;3.20;;
30420;SDS011;17218;54.070;10.012;2023-02-28T01:36:24;6.33;;;3.07;;
30420;SDS011;17218;54.070;10.012;2023-02-28T01:38:51;7.33;;;3.70;;
30420;SDS011;17218;54.070;10.012;2023-02-28T01:41:19;7.73;;;3.53;;
30420;SDS011;17218;54.070;10.012;2023-02-28T01:43:54;10.37;;;4.33;;
30420;SDS011;17218;54.070;10.012;2023-02-28T01:46:24;4.83;;;3.40;;
30420;SDS011;17218;54.070;10.012;2023-02-28T01:48:51;6.30;;;3.40;;
30420;SDS011;17218;54.070;10.012;2023-02-28T01:51:25;6.33;;;3.87;;
30420;SDS011;17218;54.070;10.012;2023-02-28T01:53:55;6.83;;;4.23;;
30420;SDS011;17218;54.070;10.012;2023-02-28T01:56:26;7.47;;;4.03;;
30420;SDS011;17218;54.070;10.012;2023-02-28T01:58:55;6.37;;;3.53;;
30420;SDS011;17218;54.070;10.012;2023-02-28T02:01:22;6.23;;;4.27;;
30420;SDS011;17218;54.070;10.012;2023-02-28T02:03:51;7.57;;;4.83;;
30420;SDS011;17218;54.070;10.012;2023-02-28T02:06:20;6.00;;;3.93;;
30420;SDS011;17218;54.070;10.012;2023-02-28T02:08:49;6.93;;;4.23;;
30420;SDS011;17218;54.070;10.012;2023-02-28T02:11:17;7.70;;;4.30;;
30420;SDS011;17218;54.070;10.012;2023-02-28T02:13:56;9.30;;;4.60;;
30420;SDS011;17218;54.070;10.012;2023-02-28T02:16:39;6.13;;;3.80;;
30420;SDS011;17218;54.070;10.012;2023-02-28T02:19:24;7.07;;;4.57;;
30420;SDS011;17218;54.070;10.012;2023-02-28T02:22:12;7.67;;;3.70;;
30420;SDS011;17218;54.070;10.012;2023-02-28T02:25:06;10.37;;;3.90;;
30420;SDS011;17218;54.070;10.012;2023-02-28T02:33:30;8.30;;;4.03;;
30420;SDS011;17218;54.070;10.012;2023-02-28T02:36:13;10.23;;;3.80;;
30420;SDS011;17218;54.070;10.012;2023-02-28T02:38:48;6.20;;;4.03;;
30420;SDS011;17218;54.070;10.012;2023-02-28T02:41:19;7.47;;;4.87;;
30420;SDS011;17218;54.070;10.012;2023-02-28T02:43:52;6.47;;;3.37;;
30420;SDS011;17218;54.070;10.012;2023-02-28T02:46:25;6.87;;;3.63;;
30420;SDS011;17218;54.070;10.012;2023-02-28T02:48:56;7.20;;;3.67;;
30420;SDS011;17218;54.070;10.012;2023-02-28T02:51:28;5.60;;;3.17;;
30420;SDS011;17218;54.070;10.012;2023-02-28T02:53:57;7.83;;;3.50;;
30420;SDS011;17218;54.070;10.012;2023-02-28T02:56:31;6.50;;;3.77;;
30420;SDS011;17218;54.070;10.012;2023-02-28T02:59:00;6.23;;;4.17;;
30420;SDS011;17218;54.070;10.012;2023-02-28T03:01:29;7.70;;;3.70;;
30420;SDS011;17218;54.070;10.012;2023-02-28T03:03:59;5.67;;;3.47;;
30420;SDS011;17218;54.070;10.012;2023-02-28T03:06:30;5.60;;;3.23;;
30420;SDS011;17218;54.070;10.012;2023-02-28T03:08:56;7.13;;;3.67;;
30420;SDS011;17218;54.070;10.012;2023-02-28T03:11:23;6.03;;;3.17;;
30420;SDS011;17218;54.070;10.012;2023-02-28T03:14:02;8.03;;;3.53;;
30420;SDS011;17218;54.070;10.012;2023-02-28T03:16:36;5.40;;;2.93;;
30420;SDS011;17218;54.070;10.012;2023-02-28T03:19:19;5.70;;;3.70;;
30420;SDS011;17218;54.070;10.012;2023-02-28T03:21:59;7.97;;;3.47;;
30420;SDS011;17218;54.070;10.012;2023-02-28T03:24:39;6.50;;;3.30;;
30420;SDS011;17218;54.070;10.012;2023-02-28T03:27:13;4.80;;;3.17;;
30420;SDS011;17218;54.070;10.012;2023-02-28T03:29:47;5.97;;;3.70;;
30420;SDS011;17218;54.070;10.012;2023-02-28T03:32:18;5.13;;;3.40;;
30420;SDS011;17218;54.070;10.012;2023-02-28T03:34:52;5.37;;;3.70;;
30420;SDS011;17218;54.070;10.012;2023-02-28T03:37:24;9.30;;;3.63;;
30420;SDS011;17218;54.070;10.012;2023-02-28T03:39:56;6.63;;;3.43;;
30420;SDS011;17218;54.070;10.012;2023-02-28T03:42:27;4.93;;;3.33;;
30420;SDS011;17218;54.070;10.012;2023-02-28T03:44:56;7.80;;;3.93;;
30420;SDS011;17218;54.070;10.012;2023-02-28T03:47:27;5.63;;;3.50;;
30420;SDS011;17218;54.070;10.012;2023-02-28T03:49:58;6.00;;;3.03;;
30420;SDS011;17218;54.070;10.012;2023-02-28T03:52:33;6.50;;;3.50;;
30420;SDS011;17218;54.070;10.012;2023-02-28T03:55:05;8.10;;;3.47;;
30420;SDS011;17218;54.070;10.012;2023-02-28T03:57:37;3.90;;;3.10;;
30420;SDS011;17218;54.070;10.012;2023-02-28T04:00:08;5.60;;;3.40;;
30420;SDS011;17218;54.070;10.012;2023-02-28T04:02:38;4.53;;;2.60;;
30420;SDS011;17218;54.070;10.012;2023-02-28T04:05:06;5.37;;;3.03;;
30420;SDS011;17218;54.070;10.012;2023-02-28T04:07:34;6.77;;;3.00;;
30420;SDS011;17218;54.070;10.012;2023-02-28T04:10:01;6.10;;;2.50;;
30420;SDS011;17218;54.070;10.012;2023-02-28T04:12:29;5.53;;;3.03;;
30420;SDS011;17218;54.070;10.012;2023-02-28T04:14:55;7.17;;;3.33;;
30420;SDS011;17218;54.070;10.012;2023-02-28T04:17:21;5.67;;;3.00;;
30420;SDS011;17218;54.070;10.012;2023-02-28T04:19:48;6.77;;;2.93;;
30420;SDS011;17218;54.070;10.012;2023-02-28T04:25:38;8.00;;;2.77;;
30420;SDS011;17218;54.070;10.012;2023-02-28T04:28:05;5.47;;;2.70;;
30420;SDS011;17218;54.070;10.012;2023-02-28T04:30:32;4.13;;;2.50;;
30420;SDS011;17218;54.070;10.012;2023-02-28T04:32:59;5.13;;;2.87;;
30420;SDS011;17218;54.070;10.012;2023-02-28T04:35:25;5.40;;;2.83;;
30420;SDS011;17218;54.070;10.012;2023-02-28T04:37:52;5.87;;;3.17;;
30420;SDS011;17218;54.070;10.012;2023-02-28T04:40:18;5.53;;;3.43;;
30420;SDS011;17218;54.070;10.012;2023-02-28T04:42:46;5.07;;;2.80;;
30420;SDS011;17218;54.070;10.012;2023-02-28T04:45:13;7.03;;;3.03;;
30420;SDS011;17218;54.070;10.012;2023-02-28T04:47:39;5.27;;;2.87;;
30420;SDS011;17218;54.070;10.012;2023-02-28T04:50:06;5.17;;;2.60;;
30420;SDS011;17218;54.070;10.012;2023-02-28T04:52:33;5.67;;;3.00;;
30420;SDS011;17218;54.070;10.012;2023-02-28T04:55:00;5.40;;;3.30;;
30420;SDS011;17218;54.070;10.012;2023-02-28T04:57:26;7.70;;;3.80;;
30420;SDS011;17218;54.070;10.012;2023-02-28T04:59:54;7.90;;;3.30;;
30420;SDS011;17218;54.070;10.012;2023-02-28T05:02:21;4.23;;;2.47;;
30420;SDS011;17218;54.070;10.012;2023-02-28T05:04:48;2.97;;;2.50;;
30420;SDS011;17218;54.070;10.012;2023-02-28T05:07:15;5.00;;;2.93;;
30420;SDS011;17218;54.070;10.012;2023-02-28T05:09:41;4.57;;;2.90;;
30420;SDS011;17218;54.070;10.012;2023-02-28T05:12:08;4.47;;;2.70;;
30420;SDS011;17218;54.070;10.012;2023-02-28T05:14:35;7.70;;;3.07;;
30420;SDS011;17218;54.070;10.012;2023-02-28T05:17:03;4.97;;;3.23;;
30420;SDS011;17218;54.070;10.012;2023-02-28T05:19:29;5.83;;;3.00;;
30420;SDS011;17218;54.070;10.012;2023-02-28T05:21:56;6.93;;;3.33;;
30420;SDS011;17218;54.070;10.012;2023-02-28T05:24:22;4.77;;;2.83;;
30420;SDS011;17218;54.070;10.012;2023-02-28T05:26:49;4.60;;;3.10;;
30420;SDS011;17218;54.070;10.012;2023-02-28T05:29:17;6.53;;;2.90;;
30420;SDS011;17218;54.070;10.012;2023-02-28T05:31:44;5.70;;;3.17;;
30420;SDS011;17218;54.070;10.012;2023-02-28T05:34:12;12.07;;;3.57;;
30420;SDS011;17218;54.070;10.012;2023-02-28T05:36:40;4.57;;;3.07;;
30420;SDS011;17218;54.070;10.012;2023-02-28T05:39:07;5.83;;;3.33;;
30420;SDS011;17218;54.070;10.012;2023-02-28T05:41:37;6.47;;;3.60;;
30420;SDS011;17218;54.070;10.012;2023-02-28T05:44:05;8.03;;;2.90;;
30420;SDS011;17218;54.070;10.012;2023-02-28T05:46:31;4.23;;;2.87;;
30420;SDS011;17218;54.070;10.012;2023-02-28T05:48:58;6.63;;;2.80;;
30420;SDS011;17218;54.070;10.012;2023-02-28T05:54:02;9.50;;;3.17;;
30420;SDS011;17218;54.070;10.012;2023-02-28T05:56:28;8.13;;;3.37;;
30420;SDS011;17218;54.070;10.012;2023-02-28T05:58:55;6.50;;;2.93;;
30420;SDS011;17218;54.070;10.012;2023-02-28T06:01:23;4.53;;;3.20;;
30420;SDS011;17218;54.070;10.012;2023-02-28T06:03:57;6.90;;;3.37;;
30420;SDS011;17218;54.070;10.012;2023-02-28T06:06:24;5.67;;;2.97;;
30420;SDS011;17218;54.070;10.012;2023-02-28T06:08:51;6.03;;;2.80;;
30420;SDS011;17218;54.070;10.012;2023-02-28T06:11:18;6.33;;;3.37;;
30420;SDS011;17218;54.070;10.012;2023-02-28T06:13:46;6.13;;;3.00;;
30420;SDS011;17218;54.070;10.012;2023-02-28T06:16:12;4.97;;;3.33;;
30420;SDS011;17218;54.070;10.012;2023-02-28T06:18:39;6.57;;;3.93;;
30420;SDS011;17218;54.070;10.012;2023-02-28T06:21:05;6.83;;;3.47;;
30420;SDS011;17218;54.070;10.012;2023-02-28T06:23:33;8.87;;;3.70;;
30420;SDS011;17218;54.070;10.012;2023-02-28T06:26:00;6.23;;;3.97;;
30420;SDS011;17218;54.070;10.012;2023-02-28T06:28:28;9.37;;;4.27;;
30420;SDS011;17218;54.070;10.012;2023-02-28T06:30:55;7.43;;;3.53;;
30420;SDS011;17218;54.070;10.012;2023-02-28T06:33:21;7.67;;;4.13;;
30420;SDS011;17218;54.070;10.012;2023-02-28T06:35:49;6.60;;;4.13;;
30420;SDS011;17218;54.070;10.012;2023-02-28T06:38:16;7.50;;;4.37;;
30420;SDS011;17218;54.070;10.012;2023-02-28T06:40:44;11.97;;;4.07;;
30420;SDS011;17218;54.070;10.012;2023-02-28T06:43:10;6.33;;;3.57;;
30420;SDS011;17218;54.070;10.012;2023-02-28T06:45:42;6.47;;;3.60;;
30420;SDS011;17218;54.070;10.012;2023-02-28T06:48:09;8.63;;;3.43;;
30420;SDS011;17218;54.070;10.012;2023-02-28T06:50:36;9.57;;;3.80;;
30420;SDS011;17218;54.070;10.012;2023-02-28T06:53:03;7.03;;;4.43;;
30420;SDS011;17218;54.070;10.012;2023-02-28T06:55:29;8.30;;;3.53;;
30420;SDS011;17218;54.070;10.012;2023-02-28T06:57:56;5.07;;;3.93;;
30420;SDS011;17218;54.070;10.012;2023-02-28T07:00:23;8.60;;;5.03;;
30420;SDS011;17218;54.070;10.012;2023-02-28T07:02:51;6.77;;;3.57;;
30420;SDS011;17218;54.070;10.012;2023-02-28T07:05:20;8.33;;;3.70;;
30420;SDS011;17218;54.070;10.012;2023-02-28T07:07:46;8.77;;;4.20;;
30420;SDS011;17218;54.070;10.012;2023-02-28T07:10:12;6.13;;;3.90;;
30420;SDS011;17218;54.070;10.012;2023-02-28T07:12:41;6.50;;;4.10;;
30420;SDS011;17218;54.070;10.012;2023-02-28T07:15:09;8.23;;;4.90;;
30420;SDS011;17218;54.070;10.012;2023-02-28T07:17:35;6.77;;;4.63;;
30420;SDS011;17218;54.070;10.012;2023-02-28T07:20:04;5.03;;;3.90;;
30420;SDS011;17218;54.070;10.012;2023-02-28T07:22:31;5.10;;;3.73;;
30420;SDS011;17218;54.070;10.012;2023-02-28T07:24:57;8.87;;;4.37;;
30420;SDS011;17218;54.070;10.012;2023-02-28T07:27:23;8.93;;;4.70;;
30420;SDS011;17218;54.070;10.012;2023-02-28T07:29:50;6.60;;;4.87;;
30420;SDS011;17218;54.070;10.012;2023-02-28T07:32:17;6.20;;;4.03;;
30420;SDS011;17218;54.070;10.012;2023-02-28T07:34:44;8.33;;;4.17;;
30420;SDS011;17218;54.070;10.012;2023-02-28T07:37:12;7.07;;;4.10;;
30420;SDS011;17218;54.070;10.012;2023-02-28T07:39:39;6.83;;;4.50;;
30420;SDS011;17218;54.070;10.012;2023-02-28T07:42:07;8.40;;;4.30;;
30420;SDS011;17218;54.070;10.012;2023-02-28T07:44:35;10.47;;;4.70;;
30420;SDS011;17218;54.070;10.012;2023-02-28T07:47:05;7.20;;;4.47;;
30420;SDS011;17218;54.070;10.012;2023-02-28T07:49:32;8.47;;;5.23;;
30420;SDS011;17218;54.070;10.012;2023-02-28T07:51:58;5.03;;;4.17;;
30420;SDS011;17218;54.070;10.012;2023-02-28T07:54:26;9.70;;;5.20;;
30420;SDS011;17218;54.070;10.012;2023-02-28T07:56:52;6.97;;;4.07;;
30420;SDS011;17218;54.070;10.012;2023-02-28T07:59:19;9.90;;;4.70;;
30420;SDS011;17218;54.070;10.012;2023-02-28T08:01:45;6.37;;;3.90;;
30420;SDS011;17218;54.070;10.012;2023-02-28T08:04:14;7.17;;;4.30;;
30420;SDS011;17218;54.070;10.012;2023-02-28T08:06:41;5.63;;;4.23;;
30420;SDS011;17218;54.070;10.012;2023-02-28T08:09:07;7.67;;;4.27;;
30420;SDS011;17218;54.070;10.012;2023-02-28T08:11:35;7.77;;;5.03;;
30420;SDS011;17218;54.070;10.012;2023-02-28T08:14:02;7.67;;;4.47;;
30420;SDS011;17218;54.070;10.012;2023-02-28T08:16:28;9.10;;;4.90;;
30420;SDS011;17218;54.070;10.012;2023-02-28T08:18:55;5.90;;;4.23;;
30420;SDS011;17218;54.070;10.012;2023-02-28T08:21:21;8.70;;;4.10;;
30420;SDS011;17218;54.070;10.012;2023-02-28T08:23:48;7.87;;;5.00;;
30420;SDS011;17218;54.070;10.012;2023-02-28T08:26:15;8.90;;;4.53;;
30420;SDS011;17218;54.070;10.012;2023-02-28T08:28:43;5.97;;;3.83;;
30420;SDS011;17218;54.070;10.012;2023-02-28T08:31:10;10.67;;;4.53;;
30420;SDS011;17218;54.070;10.012;2023-02-28T08:33:39;7.90;;;4.27;;
30420;SDS011;17218;54.070;10.012;2023-02-28T08:36:07;8.17;;;3.83;;
30420;SDS011;17218;54.070;10.012;2023-02-28T08:38:34;8.30;;;3.70;;
30420;SDS011;17218;54.070;10.012;2023-02-28T08:41:02;7.47;;;3.90;;
30420;SDS011;17218;54.070;10.012;2023-02-28T08:43:32;7.53;;;4.23;;
30420;SDS011;17218;54.070;10.012;2023-02-28T08:46:00;11.47;;;4.83;;
30420;SDS011;17218;54.070;10.012;2023-02-28T08:48:27;6.87;;;3.70;;
30420;SDS011;17218;54.070;10.012;2023-02-28T08:50:56;7.53;;;4.27;;
30420;SDS011;17218;54.070;10.012;2023-02-28T08:53:23;10.07;;;5.27;;
30420;SDS011;17218;54.070;10.012;2023-02-28T08:55:55;6.47;;;3.83;;
30420;SDS011;17218;54.070;10.012;2023-02-28T08:58:22;6.47;;;3.60;;
30420;SDS011;17218;54.070;10.012;2023-02-28T09:00:52;7.57;;;3.80;;
30420;SDS011;17218;54.070;10.012;2023-02-28T09:03:20;7.70;;;4.13;;
30420;SDS011;17218;54.070;10.012;2023-02-28T09:05:53;8.37;;;4.13;;
30420;SDS011;17218;54.070;10.012;2023-02-28T09:08:21;8.73;;;4.07;;
30420;SDS011;17218;54.070;10.012;2023-02-28T09:10:48;8.07;;;4.70;;
30420;SDS011;17218;54.070;10.012;2023-02-28T09:13:14;7.63;;;3.60;;
30420;SDS011;17218;54.070;10.012;2023-02-28T09:15:41;5.90;;;4.27;;
30420;SDS011;17218;54.070;10.012;2023-02-28T09:18:07;6.47;;;3.80;;
30420;SDS011;17218;54.070;10.012;2023-02-28T09:20:35;4.80;;;3.40;;
30420;SDS011;17218;54.070;10.012;2023-02-28T09:23:03;5.03;;;3.40;;
30420;SDS011;17218;54.070;10.012;2023-02-28T09:25:30;9.03;;;4.10;;
30420;SDS011;17218;54.070;10.012;2023-02-28T09:27:56;5.33;;;3.20;;
30420;SDS011;17218;54.070;10.012;2023-02-28T09:30:22;5.40;;;3.17;;
30420;SDS011;17218;54.070;10.012;2023-02-28T09:32:49;5.73;;;3.70;;
30420;SDS011;17218;54.070;10.012;2023-02-28T09:35:17;8.07;;;4.37;;
30420;SDS011;17218;54.070;10.012;2023-02-28T09:37:45;6.00;;;3.50;;
30420;SDS011;17218;54.070;10.012;2023-02-28T09:40:11;3.83;;;2.70;;
30420;SDS011;17218;54.070;10.012;2023-02-28T09:42:39;5.67;;;2.80;;
30420;SDS011;17218;54.070;10.012;2023-02-28T09:45:10;4.37;;;2.40;;
30420;SDS011;17218;54.070;10.012;2023-02-28T09:47:42;5.03;;;2.53;;
30420;SDS011;17218;54.070;10.012;2023-02-28T09:50:15;4.80;;;2.30;;
30420;SDS011;17218;54.070;10.012;2023-02-28T09:52:48;3.47;;;2.00;;
30420;SDS011;17218;54.070;10.012;2023-02-28T09:55:19;4.10;;;2.60;;
30420;SDS011;17218;54.070;10.012;2023-02-28T09:57:48;6.67;;;2.27;;
30420;SDS011;17218;54.070;10.012;2023-02-28T10:00:17;8.90;;;3.37;;
30420;SDS011;17218;54.070;10.012;2023-02-28T10:02:53;5.73;;;2.57;;
30420;SDS011;17218;54.070;10.012;2023-02-28T10:05:29;7.57;;;2.43;;
30420;SDS011;17218;54.070;10.012;2023-02-28T10:08:09;7.53;;;2.53;;
30420;SDS011;17218;54.070;10.012;2023-02-28T10:10:40;3.67;;;2.47;;
30420;SDS011;17218;54.070;10.012;2023-02-28T10:13:13;4.53;;;2.17;;
30420;SDS011;17218;54.070;10.012;2023-02-28T10:15:46;5.80;;;2.50;;
30420;SDS011;17218;54.070;10.012;2023-02-28T10:18:19;3.25;;;1.80;;
30420;SDS011;17218;54.070;10.012;2023-02-28T10:20:50;3.20;;;2.53;;
30420;SDS011;17218;54.070;10.012;2023-02-28T10:23:20;2.00;;;1.67;;
30420;SDS011;17218;54.070;10.012;2023-02-28T10:25:50;8.07;;;2.13;;
30420;SDS011;17218;54.070;10.012;2023-02-28T10:28:21;2.40;;;1.67;;
30420;SDS011;17218;54.070;10.012;2023-02-28T10:30:48;3.00;;;2.03;;
30420;SDS011;17218;54.070;10.012;2023-02-28T10:33:20;2.63;;;1.90;;
30420;SDS011;17218;54.070;10.012;2023-02-28T10:35:49;3.05;;;2.17;;
30420;SDS011;17218;54.070;10.012;2023-02-28T10:38:19;4.22;;;2.22;;
30420;SDS011;17218;54.070;10.012;2023-02-28T10:40:47;2.53;;;1.93;;
30420;SDS011;17218;54.070;10.012;2023-02-28T10:43:18;2.75;;;1.92;;
30420;SDS011;17218;54.070;10.012;2023-02-28T10:45:53;5.00;;;1.93;;
30420;SDS011;17218;54.070;10.012;2023-02-28T10:48:27;5.40;;;2.00;;
30420;SDS011;17218;54.070;10.012;2023-02-28T10:50:56;3.55;;;1.80;;
30420;SDS011;17218;54.070;10.012;2023-02-28T10:53:33;2.38;;;1.65;;
30420;SDS011;17218;54.070;10.012;2023-02-28T10:56:03;2.95;;;1.95;;
30420;SDS011;17218;54.070;10.012;2023-02-28T10:58:34;4.00;;;1.80;;
30420;SDS011;17218;54.070;10.012;2023-02-28T11:01:14;2.92;;;1.92;;
30420;SDS011;17218;54.070;10.012;2023-02-28T11:03:42;4.55;;;1.95;;
30420;SDS011;17218;54.070;10.012;2023-02-28T11:06:13;2.13;;;1.67;;
30420;SDS011;17218;54.070;10.012;2023-02-28T11:08:45;5.05;;;2.20;;
30420;SDS011;17218;54.070;10.012;2023-02-28T11:11:14;4.30;;;1.90;;
30420;SDS011;17218;54.070;10.012;2023-02-28T11:13:42;5.72;;;1.73;;
30420;SDS011;17218;54.070;10.012;2023-02-28T11:16:11;2.28;;;1.80;;
30420;SDS011;17218;54.070;10.012;2023-02-28T11:18:40;2.95;;;1.83;;
30420;SDS011;17218;54.070;10.012;2023-02-28T11:21:14;2.58;;;1.83;;
30420;SDS011;17218;54.070;10.012;2023-02-28T11:23:45;2.78;;;1.73;;
30420;SDS011;17218;54.070;10.012;2023-02-28T11:26:13;2.53;;;1.83;;
30420;SDS011;17218;54.070;10.012;2023-02-28T11:28:41;3.58;;;1.77;;
30420;SDS011;17218;54.070;10.012;2023-02-28T11:31:14;3.30;;;1.92;;
30420;SDS011;17218;54.070;10.012;2023-02-28T11:33:45;2.70;;;1.90;;
30420;SDS011;17218;54.070;10.012;2023-02-28T11:36:16;4.00;;;1.98;;
30420;SDS011;17218;54.070;10.012;2023-02-28T11:38:46;3.88;;;2.03;;
30420;SDS011;17218;54.070;10.012;2023-02-28T11:44:13;2.92;;;2.22;;
30420;SDS011;17218;54.070;10.012;2023-02-28T11:46:52;3.58;;;2.00;;
30420;SDS011;17218;54.070;10.012;2023-02-28T11:49:29;3.65;;;1.92;;
30420;SDS011;17218;54.070;10.012;2023-02-28T11:52:00;2.08;;;1.77;;
30420;SDS011;17218;54.070;10.012;2023-02-28T11:54:39;1.92;;;1.73;;
30420;SDS011;17218;54.070;10.012;2023-02-28T11:57:22;2.20;;;1.67;;
30420;SDS011;17218;54.070;10.012;2023-02-28T12:00:00;4.82;;;1.67;;
30420;SDS011;17218;54.070;10.012;2023-02-28T12:02:35;2.42;;;1.58;;
30420;SDS011;17218;54.070;10.012;2023-02-28T12:05:12;2.97;;;1.40;;
30420;SDS011;17218;54.070;10.012;2023-02-28T12:07:50;1.20;;;1.10;;
30420;SDS011;17218;54.070;10.012;2023-02-28T12:10:26;1.13;;;0.90;;
30420;SDS011;17218;54.070;10.012;2023-02-28T12:12:59;2.70;;;1.55;;
30420;SDS011;17218;54.070;10.012;2023-02-28T12:15:38;3.58;;;1.80;;
30420;SDS011;17218;54.070;10.012;2023-02-28T12:18:24;1.75;;;1.20;;
30420;SDS011;17218;54.070;10.012;2023-02-28T12:20:57;1.08;;;0.98;;
30420;SDS011;17218;54.070;10.012;2023-02-28T12:23:40;1.90;;;1.20;;
30420;SDS011;17218;54.070;10.012;2023-02-28T12:26:20;1.83;;;1.48;;
30420;SDS011;17218;54.070;10.012;2023-02-28T12:28:59;2.53;;;1.80;;
30420;SDS011;17218;54.070;10.012;2023-02-28T12:31:33;3.90;;;2.22;;
30420;SDS011;17218;54.070;10.012;2023-02-28T12:34:03;2.00;;;1.40;;
30420;SDS011;17218;54.070;10.012;2023-02-28T12:36:35;2.08;;;1.80;;
30420;SDS011;17218;54.070;10.012;2023-02-28T12:39:06;4.22;;;1.48;;
30420;SDS011;17218;54.070;10.012;2023-02-28T12:41:41;2.58;;;1.50;;
30420;SDS011;17218;54.070;10.012;2023-02-28T12:44:12;1.80;;;1.42;;
30420;SDS011;17218;54.070;10.012;2023-02-28T12:46:42;2.53;;;1.67;;
30420;SDS011;17218;54.070;10.012;2023-02-28T12:49:14;3.38;;;1.90;;
30420;SDS011;17218;54.070;10.012;2023-02-28T12:51:43;2.25;;;1.70;;
30420;SDS011;17218;54.070;10.012;2023-02-28T12:54:13;2.28;;;1.92;;
30420;SDS011;17218;54.070;10.012;2023-02-28T12:56:50;2.75;;;2.40;;
30420;SDS011;17218;54.070;10.012;2023-02-28T12:59:25;2.28;;;1.92;;
30420;SDS011;17218;54.070;10.012;2023-02-28T13:02:02;3.65;;;2.50;;
30420;SDS011;17218;54.070;10.012;2023-02-28T13:04:47;3.42;;;2.03;;
30420;SDS011;17218;54.070;10.012;2023-02-28T13:07:36;4.00;;;2.30;;
30420;SDS011;17218;54.070;10.012;2023-02-28T13:10:18;4.68;;;2.60;;
30420;SDS011;17218;54.070;10.012;2023-02-28T13:12:50;3.78;;;2.25;;
30420;SDS011;17218;54.070;10.012;2023-02-28T13:15:19;3.95;;;2.30;;
30420;SDS011;17218;54.070;10.012;2023-02-28T13:17:49;4.95;;;3.15;;
30420;SDS011;17218;54.070;10.012;2023-02-28T13:20:19;5.22;;;3.05;;
30420;SDS011;17218;54.070;10.012;2023-02-28T13:22:48;5.18;;;3.22;;
30420;SDS011;17218;54.070;10.012;2023-02-28T13:32:08;4.13;;;2.28;;
30420;SDS011;17218;54.070;10.012;2023-02-28T13:34:38;2.35;;;1.92;;
30420;SDS011;17218;54.070;10.012;2023-02-28T13:40:07;4.32;;;2.30;;
30420;SDS011;17218;54.070;10.012;2023-02-28T13:42:48;4.45;;;2.00;;
30420;SDS011;17218;54.070;10.012;2023-02-28T13:45:23;4.18;;;2.05;;
30420;SDS011;17218;54.070;10.012;2023-02-28T13:47:53;2.40;;;2.20;;
30420;SDS011;17218;54.070;10.012;2023-02-28T13:50:32;3.50;;;2.25;;
30420;SDS011;17218;54.070;10.012;2023-02-28T13:53:11;5.13;;;2.55;;
30420;SDS011;17218;54.070;10.012;2023-02-28T13:56:00;3.30;;;2.05;;
30420;SDS011;17218;54.070;10.012;2023-02-28T13:58:40;2.67;;;2.10;;
30420;SDS011;17218;54.070;10.012;2023-02-28T14:04:17;2.42;;;2.03;;
30420;SDS011;17218;54.070;10.012;2023-02-28T14:07:09;2.65;;;1.90;;
30420;SDS011;17218;54.070;10.012;2023-02-28T14:09:45;2.35;;;2.10;;
30420;SDS011;17218;54.070;10.012;2023-02-28T14:18:21;2.63;;;2.38;;
30420;SDS011;17218;54.070;10.012;2023-02-28T14:20:53;4.25;;;2.15;;
30420;SDS011;17218;54.070;10.012;2023-02-28T14:23:40;2.45;;;2.17;;
30420;SDS011;17218;54.070;10.012;2023-02-28T14:26:18;2.22;;;1.70;;
30420;SDS011;17218;54.070;10.012;2023-02-28T14:28:59;2.60;;;1.90;;
30420;SDS011;17218;54.070;10.012;2023-02-28T14:31:37;3.42;;;2.05;;
30420;SDS011;17218;54.070;10.012;2023-02-28T14:34:17;2.05;;;1.70;;
30420;SDS011;17218;54.070;10.012;2023-02-28T14:36:53;3.15;;;1.75;;
30420;SDS011;17218;54.070;10.012;2023-02-28T14:39:21;2.70;;;1.90;;
30420;SDS011;17218;54.070;10.012;2023-02-28T14:41:51;2.65;;;1.88;;
30420;SDS011;17218;54.070;10.012;2023-02-28T14:44:18;3.05;;;1.88;;
30420;SDS011;17218;54.070;10.012;2023-02-28T14:46:47;2.30;;;2.10;;
30420;SDS011;17218;54.070;10.012;2023-02-28T14:49:24;2.88;;;1.95;;
30420;SDS011;17218;54.070;10.012;2023-02-28T14:52:02;4.50;;;2.28;;
30420;SDS011;17218;54.070;10.012;2023-02-28T14:54:34;1.90;;;1.73;;
30420;SDS011;17218;54.070;10.012;2023-02-28T14:57:01;5.10;;;1.88;;
30420;SDS011;17218;54.070;10.012;2023-02-28T14:59:28;1.60;;;1.50;;
30420;SDS011;17218;54.070;10.012;2023-02-28T15:02:16;3.95;;;1.88;;
30420;SDS011;17218;54.070;10.012;2023-02-28T15:04:51;3.55;;;2.50;;
30420;SDS011;17218;54.070;10.012;2023-02-28T15:07:20;3.28;;;2.10;;
30420;SDS011;17218;54.070;10.012;2023-02-28T15:10:06;2.47;;;2.15;;
30420;SDS011;17218;54.070;10.012;2023-02-28T15:12:34;3.17;;;2.38;;
30420;SDS011;17218;54.070;10.012;2023-02-28T15:15:00;4.00;;;2.22;;
30420;SDS011;17218;54.070;10.012;2023-02-28T15:17:27;3.25;;;1.92;;
30420;SDS011;17218;54.070;10.012;2023-02-28T15:19:54;2.47;;;2.00;;
30420;SDS011;17218;54.070;10.012;2023-02-28T15:22:24;2.50;;;2.05;;
30420;SDS011;17218;54.070;10.012;2023-02-28T15:24:54;3.33;;;1.85;;